createdAt,value
2018-12-04T00:01:30.571Z,3.65
2018-12-04T00:03:58.363Z,3.50
2018-12-04T00:06:25.947Z,6.33
2018-12-04T00:08:53.565Z,2.55
2018-12-04T00:11:21.183Z,2.35
2018-12-04T00:13:48.793Z,2.15
2018-12-04T00:16:16.389Z,3.98
2018-12-04T00:18:44.980Z,2.55
2018-12-04T00:21:12.755Z,4.65
2018-12-04T00:23:40.341Z,6.25
2018-12-04T00:26:07.953Z,2.65
2018-12-04T00:28:35.556Z,3.87
2018-12-04T00:31:03.283Z,6.40
2018-12-04T00:33:30.896Z,12.15
2018-12-04T00:35:58.492Z,4.58
2018-12-04T00:38:26.072Z,2.60
2018-12-04T00:40:53.685Z,3.17
2018-12-04T00:43:21.329Z,7.08
2018-12-04T00:45:49.028Z,2.10
2018-12-04T00:48:16.842Z,6.15
2018-12-04T00:50:44.467Z,4.58
2018-12-04T00:53:12.168Z,3.85
2018-12-04T00:55:40.557Z,10.72
2018-12-04T00:58:08.379Z,12.45
2018-12-04T01:00:36.025Z,3.05
2018-12-04T01:03:04.079Z,5.97
2018-12-04T01:05:31.946Z,7.85
2018-12-04T01:08:00.376Z,7.90
2018-12-04T01:10:28.149Z,13.00
2018-12-04T01:12:55.899Z,6.65
2018-12-04T01:15:23.717Z,4.45
2018-12-04T01:17:51.345Z,18.07
2018-12-04T01:20:19.046Z,9.78
2018-12-04T01:22:46.698Z,5.33
2018-12-04T01:25:14.550Z,14.07
2018-12-04T01:27:42.449Z,9.70
2018-12-04T01:30:10.057Z,8.18
2018-12-04T01:32:37.836Z,3.40
2018-12-04T01:35:05.674Z,4.70
2018-12-04T01:37:33.359Z,8.73
2018-12-04T01:40:01.132Z,4.20
2018-12-04T01:42:28.861Z,3.80
2018-12-04T01:44:56.649Z,7.65
2018-12-04T01:47:24.308Z,4.17
2018-12-04T01:49:52.010Z,10.93
2018-12-04T01:52:19.839Z,5.65
2018-12-04T01:54:47.508Z,3.58
2018-12-04T01:57:15.144Z,4.75
2018-12-04T01:59:42.751Z,7.25
2018-12-04T02:02:10.521Z,8.83
2018-12-04T02:04:38.203Z,3.33
2018-12-04T02:07:05.787Z,6.15
2018-12-04T02:09:33.388Z,10.15
2018-12-04T02:12:01.037Z,12.45
2018-12-04T02:14:28.648Z,2.52
2018-12-04T02:16:56.464Z,8.93
2018-12-04T02:19:24.400Z,12.60
2018-12-04T02:21:52.388Z,5.20
2018-12-04T02:24:20.393Z,3.75
2018-12-04T02:26:48.159Z,8.10
2018-12-04T02:29:15.971Z,15.15
2018-12-04T02:31:43.740Z,2.37
2018-12-04T02:34:11.581Z,5.58
2018-12-04T02:36:39.430Z,10.43
2018-12-04T02:39:09.044Z,5.40
2018-12-04T02:41:36.930Z,9.20
2018-12-04T02:44:04.734Z,18.45
2018-12-04T02:46:34.191Z,7.80
2018-12-04T02:49:02.576Z,7.83
2018-12-04T02:51:30.468Z,6.30
2018-12-04T02:53:58.312Z,7.47
2018-12-04T02:56:26.325Z,10.63
2018-12-04T02:58:54.180Z,7.35
2018-12-04T03:01:22.102Z,4.62
2018-12-04T03:03:50.058Z,6.78
2018-12-04T03:06:18.013Z,6.67
2018-12-04T03:08:45.895Z,4.30
2018-12-04T03:11:14.535Z,5.75
2018-12-04T03:13:42.320Z,10.65
2018-12-04T03:16:10.123Z,8.05
2018-12-04T03:18:37.985Z,7.08
2018-12-04T03:21:06.572Z,6.33
2018-12-04T03:23:34.288Z,9.48
2018-12-04T03:26:02.131Z,18.35
2018-12-04T03:28:29.879Z,5.97
2018-12-04T03:30:57.709Z,9.58
2018-12-04T03:33:33.385Z,6.10
2018-12-04T03:36:01.532Z,11.73
2018-12-04T03:38:29.402Z,7.70
2018-12-04T03:40:57.274Z,10.48
2018-12-04T03:43:26.268Z,16.57
2018-12-04T03:45:54.156Z,7.25
2018-12-04T03:48:23.451Z,9.58
2018-12-04T03:50:52.046Z,8.73
2018-12-04T03:53:21.270Z,6.78
2018-12-04T03:55:50.241Z,5.30
2018-12-04T03:58:17.940Z,10.43
2018-12-04T04:00:45.975Z,9.50
2018-12-04T04:03:13.619Z,16.65
2018-12-04T04:05:41.349Z,9.35
2018-12-04T04:08:08.959Z,11.18
2018-12-04T04:10:36.593Z,5.17
2018-12-04T04:13:04.230Z,5.47
2018-12-04T04:15:31.916Z,2.25
2018-12-04T04:17:59.538Z,6.33
2018-12-04T04:20:27.153Z,1.85
2018-12-04T04:22:54.738Z,8.43
2018-12-04T04:25:22.359Z,8.23
2018-12-04T04:27:49.999Z,7.85
2018-12-04T04:30:17.637Z,9.78
2018-12-04T04:32:45.365Z,7.90
2018-12-04T04:35:13.049Z,11.20
2018-12-04T04:37:40.651Z,7.83
2018-12-04T04:40:08.282Z,4.30
2018-12-04T04:42:35.937Z,7.45
2018-12-04T04:45:03.894Z,6.25
2018-12-04T04:47:32.094Z,11.05
2018-12-04T04:49:59.767Z,7.08
2018-12-04T04:52:27.547Z,8.75
2018-12-04T04:54:55.213Z,14.07
2018-12-04T04:57:22.920Z,4.65
2018-12-04T04:59:50.797Z,8.70
2018-12-04T05:02:18.486Z,7.28
2018-12-04T05:04:46.073Z,4.45
2018-12-04T05:07:13.979Z,11.85
2018-12-04T05:09:41.852Z,7.22
2018-12-04T05:12:09.440Z,8.25
2018-12-04T05:14:37.113Z,13.85
2018-12-04T05:17:04.774Z,8.48
2018-12-04T05:19:32.392Z,5.55
2018-12-04T05:22:00.193Z,6.47
2018-12-04T05:24:28.001Z,7.67
2018-12-04T05:26:55.642Z,9.40
2018-12-04T05:29:23.361Z,5.45
2018-12-04T05:31:50.955Z,4.17
2018-12-04T05:34:18.643Z,5.62
2018-12-04T05:36:46.237Z,10.38
2018-12-04T05:39:13.834Z,4.12
2018-12-04T05:41:41.481Z,10.18
2018-12-04T05:44:09.293Z,2.55
2018-12-04T05:46:37.079Z,4.42
2018-12-04T05:49:04.964Z,2.25
2018-12-04T05:51:32.690Z,4.15
2018-12-04T05:54:00.356Z,3.60
2018-12-04T05:56:28.001Z,6.08
2018-12-04T05:58:55.795Z,8.68
2018-12-04T06:01:23.424Z,10.38
2018-12-04T06:03:51.162Z,2.35
2018-12-04T06:06:18.791Z,7.72
2018-12-04T06:08:46.705Z,2.40
2018-12-04T06:11:14.653Z,3.15
2018-12-04T06:13:42.403Z,4.10
2018-12-04T06:16:10.097Z,4.60
2018-12-04T06:18:37.791Z,4.95
2018-12-04T06:21:05.465Z,7.28
2018-12-04T06:23:33.143Z,7.33
2018-12-04T06:26:00.810Z,5.15
2018-12-04T06:28:28.553Z,3.52
2018-12-04T06:30:56.289Z,4.12
2018-12-04T06:33:23.971Z,4.45
2018-12-04T06:35:51.609Z,2.80
2018-12-04T06:38:19.235Z,5.10
2018-12-04T06:40:47.503Z,2.47
2018-12-04T06:43:15.284Z,4.37
2018-12-04T06:45:42.954Z,4.10
2018-12-04T06:48:10.761Z,2.70
2018-12-04T06:50:38.406Z,3.65
2018-12-04T06:53:06.051Z,4.12
2018-12-04T06:55:33.732Z,4.62
2018-12-04T06:58:01.463Z,7.85
2018-12-04T07:00:29.180Z,7.67
2018-12-04T07:02:56.899Z,5.47
2018-12-04T07:05:24.726Z,2.40
2018-12-04T07:07:52.917Z,4.45
2018-12-04T07:10:20.888Z,4.37
2018-12-04T07:12:48.813Z,4.17
2018-12-04T07:15:16.488Z,8.88
2018-12-04T07:17:44.336Z,7.72
2018-12-04T07:20:12.124Z,4.60
2018-12-04T07:22:39.881Z,4.60
2018-12-04T07:25:08.244Z,7.58
2018-12-04T07:27:36.508Z,5.12
2018-12-04T07:30:06.263Z,13.70
2018-12-04T07:32:38.585Z,5.65
2018-12-04T07:35:05.061Z,5.67
2018-12-04T07:37:32.726Z,2.85
2018-12-04T07:40:00.523Z,12.25
2018-12-04T07:42:28.455Z,4.87
2018-12-04T07:44:56.380Z,14.45
2018-12-04T07:47:25.232Z,3.15
2018-12-04T07:49:53.281Z,9.15
2018-12-04T07:52:21.184Z,6.67
2018-12-04T07:54:48.887Z,2.83
2018-12-04T07:57:16.902Z,2.22
2018-12-04T07:59:44.884Z,6.22
2018-12-04T08:02:12.999Z,14.73
2018-12-04T08:04:42.589Z,5.35
2018-12-04T08:07:11.183Z,6.45
2018-12-04T08:09:39.298Z,3.90
2018-12-04T08:12:07.297Z,7.08
2018-12-04T08:14:35.508Z,3.17
2018-12-04T08:17:03.272Z,20.32
2018-12-04T08:19:30.907Z,5.58
2018-12-04T08:21:59.352Z,4.75
2018-12-04T08:24:27.336Z,6.72
2018-12-04T08:26:55.143Z,5.97
2018-12-04T08:29:23.064Z,5.33
2018-12-04T08:31:52.268Z,4.12
2018-12-04T08:34:21.601Z,10.65
2018-12-04T08:36:50.240Z,3.75
2018-12-04T08:39:18.611Z,5.35
2018-12-04T08:41:46.340Z,14.40
2018-12-04T08:44:16.672Z,9.88
2018-12-04T08:46:44.906Z,3.25
2018-12-04T08:49:13.247Z,5.72
2018-12-04T08:51:41.147Z,8.15
2018-12-04T08:54:09.545Z,6.03
2018-12-04T08:56:37.846Z,2.92
2018-12-04T08:59:05.836Z,3.47
2018-12-04T09:01:33.897Z,6.45
2018-12-04T09:04:01.588Z,6.40
2018-12-04T09:06:38.984Z,4.60
2018-12-04T09:09:09.614Z,13.98
2018-12-04T09:11:37.921Z,8.33
2018-12-04T09:14:06.023Z,7.35
2018-12-04T09:16:34.041Z,3.75
2018-12-04T09:19:02.179Z,11.95
2018-12-04T09:21:30.552Z,3.98
2018-12-04T09:23:58.310Z,3.87
2018-12-04T09:26:26.328Z,10.30
2018-12-04T09:28:54.575Z,8.40
2018-12-04T09:31:22.545Z,5.20
2018-12-04T09:33:50.206Z,10.15
2018-12-04T09:36:18.641Z,97.33
2018-12-04T09:38:46.476Z,4.60
2018-12-04T09:41:14.223Z,4.42
2018-12-04T09:43:41.820Z,4.65
2018-12-04T09:46:10.403Z,5.70
2018-12-04T09:48:38.040Z,3.50
2018-12-04T09:51:05.742Z,4.12
2018-12-04T09:53:33.380Z,10.25
2018-12-04T09:56:01.017Z,7.22
2018-12-04T09:58:28.600Z,4.65
2018-12-04T10:00:57.231Z,4.60
2018-12-04T10:03:25.107Z,3.60
2018-12-04T10:05:52.785Z,6.08
2018-12-04T10:08:20.793Z,3.22
2018-12-04T10:10:48.450Z,8.43
2018-12-04T10:13:16.064Z,5.75
2018-12-04T10:15:43.703Z,3.95
2018-12-04T10:18:11.572Z,3.40
2018-12-04T10:20:39.214Z,3.15
2018-12-04T10:23:06.897Z,3.00
2018-12-04T10:25:34.533Z,2.75
2018-12-04T10:28:02.160Z,5.92
2018-12-04T10:30:29.825Z,2.47
2018-12-04T10:32:57.451Z,3.08
2018-12-04T10:35:25.085Z,17.98
2018-12-04T10:37:52.701Z,3.12
2018-12-04T10:40:20.705Z,4.45
2018-12-04T10:42:48.303Z,8.00
2018-12-04T10:45:15.928Z,3.45
2018-12-04T10:47:43.531Z,9.53
2018-12-04T10:50:11.132Z,6.95
2018-12-04T10:52:38.754Z,5.35
2018-12-04T10:55:06.375Z,2.95
2018-12-04T10:57:34.988Z,5.10
2018-12-04T11:00:03.310Z,3.37
2018-12-04T11:02:33.424Z,3.40
2018-12-04T11:10:19.465Z,4.47
2018-12-04T11:12:47.098Z,4.08
2018-12-04T11:15:15.210Z,2.98
2018-12-04T11:17:43.003Z,4.70
2018-12-04T11:20:11.331Z,3.75
2018-12-04T11:22:39.362Z,2.87
2018-12-04T11:25:07.885Z,2.62
2018-12-04T11:27:35.723Z,2.80
2018-12-04T11:30:05.176Z,4.62
2018-12-04T11:32:32.891Z,2.52
2018-12-04T11:35:00.549Z,2.50
2018-12-04T11:37:28.253Z,4.00
2018-12-04T11:39:55.870Z,4.67
2018-12-04T11:42:23.503Z,6.25
2018-12-04T11:44:51.093Z,3.25
2018-12-04T11:47:19.718Z,2.80
2018-12-04T11:49:47.493Z,4.28
2018-12-04T11:52:15.582Z,4.67
2018-12-04T11:54:43.362Z,4.60
2018-12-04T11:57:11.192Z,8.83
2018-12-04T11:59:39.118Z,2.72
2018-12-04T12:02:19.541Z,3.37
2018-12-04T12:04:47.561Z,3.35
2018-12-04T12:07:20.389Z,3.35
2018-12-04T12:09:44.848Z,3.72
2018-12-04T12:12:12.703Z,3.60
2018-12-04T12:14:40.286Z,8.95
2018-12-04T12:17:07.924Z,3.45
2018-12-04T12:19:35.497Z,3.47
2018-12-04T12:22:03.081Z,4.85
2018-12-04T12:24:30.769Z,3.77
2018-12-04T12:26:58.712Z,5.10
2018-12-04T12:29:26.388Z,2.72
2018-12-04T12:31:54.233Z,4.28
2018-12-04T12:34:23.728Z,4.45
2018-12-04T12:36:52.064Z,3.70
2018-12-04T12:39:19.851Z,11.57
2018-12-04T12:41:47.727Z,3.25
2018-12-04T12:44:15.781Z,5.58
2018-12-04T12:46:43.493Z,6.40
2018-12-04T12:49:11.602Z,4.37
2018-12-04T12:51:39.859Z,3.10
2018-12-04T12:54:08.671Z,3.92
2018-12-04T12:56:36.375Z,6.10
2018-12-04T12:59:04.047Z,2.95
2018-12-04T13:01:31.659Z,5.85
2018-12-04T13:03:59.438Z,3.75
2018-12-04T13:06:27.240Z,3.55
2018-12-04T13:08:54.995Z,2.25
2018-12-04T13:11:22.691Z,2.12
2018-12-04T13:13:50.535Z,1.98
2018-12-04T13:16:18.717Z,2.85
2018-12-04T13:18:46.352Z,2.75
2018-12-04T13:21:14.840Z,5.28
2018-12-04T13:23:42.471Z,2.22
2018-12-04T13:26:10.092Z,2.70
2018-12-04T13:28:37.763Z,3.20
2018-12-04T13:31:05.379Z,3.58
2018-12-04T13:33:33.159Z,3.17
2018-12-04T13:36:00.803Z,2.62
2018-12-04T13:38:28.569Z,2.50
2018-12-04T13:40:56.207Z,3.95
2018-12-04T13:43:24.671Z,9.08
2018-12-04T13:45:53.900Z,2.52
2018-12-04T13:48:21.836Z,6.80
2018-12-04T13:50:49.514Z,3.50
2018-12-04T13:53:17.091Z,4.03
2018-12-04T13:55:44.765Z,4.15
2018-12-04T13:58:12.768Z,3.12
2018-12-04T14:00:40.492Z,3.50
2018-12-04T14:03:08.188Z,5.47
2018-12-04T14:05:36.106Z,3.62
2018-12-04T14:08:03.784Z,7.03
2018-12-04T14:10:31.436Z,4.20
2018-12-04T14:12:59.019Z,11.15
2018-12-04T14:15:26.795Z,5.90
2018-12-04T14:17:54.434Z,4.58
2018-12-04T14:20:22.284Z,5.47
2018-12-04T14:22:49.881Z,11.50
2018-12-04T14:25:17.550Z,10.75
2018-12-04T14:27:49.067Z,7.03
2018-12-04T14:30:14.849Z,7.67
2018-12-04T14:32:42.597Z,6.22
2018-12-04T14:35:21.638Z,6.55
2018-12-04T14:37:49.708Z,5.97
2018-12-04T14:40:17.771Z,10.20
2018-12-04T14:42:45.408Z,7.72
2018-12-04T14:45:13.301Z,8.90
2018-12-04T14:47:41.074Z,10.45
2018-12-04T14:50:08.855Z,18.30
2018-12-04T14:55:10.584Z,6.12
2018-12-04T14:57:38.245Z,8.65
2018-12-04T15:00:08.684Z,17.05
2018-12-04T15:02:36.343Z,10.28
2018-12-04T15:05:04.765Z,9.88
2018-12-04T15:07:32.441Z,8.95
2018-12-04T15:10:00.216Z,18.55
2018-12-04T15:12:27.859Z,9.75
2018-12-04T15:14:55.533Z,10.23
2018-12-04T15:17:23.333Z,4.90
2018-12-04T15:19:51.065Z,11.45
2018-12-04T15:22:18.866Z,8.00
2018-12-04T15:24:46.640Z,11.10
2018-12-04T15:27:14.427Z,59.48
2018-12-04T15:29:42.756Z,10.58
2018-12-04T15:32:10.693Z,13.03
2018-12-04T15:34:38.436Z,11.43
2018-12-04T15:37:06.300Z,12.05
2018-12-04T15:39:33.987Z,16.57
2018-12-04T15:42:01.880Z,11.30
2018-12-04T15:44:44.357Z,9.45
2018-12-04T15:47:12.865Z,8.38
2018-12-04T15:49:41.886Z,10.13
2018-12-04T15:52:09.745Z,14.98
2018-12-04T15:54:37.605Z,23.22
2018-12-04T15:57:05.379Z,13.90
2018-12-04T15:59:33.237Z,10.82
2018-12-04T16:02:00.857Z,12.65
2018-12-04T16:04:29.297Z,11.70
2018-12-04T16:06:56.933Z,12.78
2018-12-04T16:09:25.604Z,13.53
2018-12-04T16:11:53.288Z,15.50
2018-12-04T16:14:21.129Z,14.28
2018-12-04T16:22:53.165Z,14.05
2018-12-04T16:25:23.219Z,11.33
2018-12-04T16:27:57.109Z,10.88
2018-12-04T16:30:26.645Z,15.32
2018-12-04T16:32:54.827Z,16.60
2018-12-04T16:35:22.486Z,11.05
2018-12-04T16:37:50.261Z,10.55
2018-12-04T16:40:18.048Z,22.50
2018-12-04T16:42:45.703Z,22.55
2018-12-04T16:45:13.420Z,25.82
2018-12-04T16:47:41.088Z,20.48
2018-12-04T16:50:08.808Z,15.85
2018-12-04T16:52:36.448Z,19.12
2018-12-04T16:55:05.123Z,18.25
2018-12-04T16:57:32.789Z,14.20
2018-12-04T17:00:00.430Z,15.83
2018-12-04T17:02:28.245Z,16.82
2018-12-04T17:04:55.946Z,20.70
2018-12-04T17:07:23.552Z,16.48
2018-12-04T17:09:51.147Z,13.68
2018-12-04T17:12:18.836Z,12.13
2018-12-04T17:14:46.573Z,15.48
2018-12-04T17:17:14.304Z,14.15
2018-12-04T17:19:41.977Z,11.57
2018-12-04T17:22:09.626Z,11.08
2018-12-04T17:24:37.624Z,19.02
2018-12-04T17:27:05.680Z,16.35
2018-12-04T17:29:37.949Z,16.42
2018-12-04T17:32:06.321Z,19.32
2018-12-04T17:34:34.997Z,18.23
2018-12-04T17:37:12.409Z,21.25
2018-12-04T17:39:40.882Z,29.32
2018-12-04T17:42:08.629Z,18.27
2018-12-04T17:44:40.180Z,17.27
2018-12-04T17:47:05.871Z,22.17
2018-12-04T17:49:35.126Z,16.52
2018-12-04T17:52:02.976Z,10.10
2018-12-04T17:54:30.633Z,14.15
2018-12-04T17:56:58.223Z,18.37
2018-12-04T17:59:25.863Z,17.15
2018-12-04T18:01:53.441Z,16.67
2018-12-04T18:04:21.106Z,18.23
2018-12-04T18:06:48.726Z,23.67
2018-12-04T18:09:16.500Z,12.25
2018-12-04T18:11:44.435Z,15.38
2018-12-04T18:14:42.048Z,15.23
2018-12-04T18:17:10.113Z,28.77
2018-12-04T18:19:37.800Z,22.40
2018-12-04T18:22:05.695Z,15.10
2018-12-04T18:24:33.433Z,13.90
2018-12-04T18:27:01.227Z,26.25
2018-12-04T18:29:28.875Z,13.13
2018-12-04T18:31:56.546Z,10.25
2018-12-04T18:34:24.296Z,20.70
2018-12-04T18:36:52.215Z,15.53
2018-12-04T18:39:20.004Z,14.38
2018-12-04T18:41:47.708Z,12.73
2018-12-04T18:44:15.763Z,11.38
2018-12-04T18:46:43.394Z,12.88
2018-12-04T18:49:11.169Z,10.70
2018-12-04T18:51:39.560Z,13.45
2018-12-04T18:54:07.230Z,15.58
2018-12-04T18:56:34.879Z,13.88
2018-12-04T18:59:02.588Z,23.98
2018-12-04T19:01:30.222Z,27.95
2018-12-04T19:03:59.924Z,12.68
2018-12-04T19:06:27.693Z,19.42
2018-12-04T19:08:55.356Z,14.58
2018-12-04T19:11:23.107Z,18.48
2018-12-04T19:13:50.779Z,19.67
2018-12-04T19:16:18.776Z,21.87
2018-12-04T19:18:46.505Z,17.00
2018-12-04T19:21:14.114Z,23.47
2018-12-04T19:23:41.826Z,18.85
2018-12-04T19:26:09.553Z,17.02
2018-12-04T19:28:37.253Z,21.60
2018-12-04T19:31:05.085Z,16.73
2018-12-04T19:33:32.900Z,18.75
2018-12-04T19:36:00.825Z,17.20
2018-12-04T19:38:28.553Z,22.17
2018-12-04T19:40:56.247Z,15.58
2018-12-04T19:43:24.011Z,26.62
2018-12-04T19:45:51.695Z,20.62
2018-12-04T19:48:19.369Z,13.83
2018-12-04T19:50:47.032Z,16.67
2018-12-04T19:53:14.691Z,19.75
2018-12-04T19:55:42.326Z,16.40
2018-12-04T19:58:09.952Z,16.30
2018-12-04T20:00:37.532Z,16.70
2018-12-04T20:03:05.247Z,13.85
2018-12-04T20:05:33.071Z,25.32
2018-12-04T20:08:00.792Z,16.15
2018-12-04T20:10:28.428Z,16.17
2018-12-04T20:12:56.380Z,10.98
2018-12-04T20:15:24.161Z,20.52
2018-12-04T20:17:51.869Z,14.00
2018-12-04T20:20:19.646Z,15.10
2018-12-04T20:22:47.760Z,21.27
2018-12-04T20:25:15.832Z,20.95
2018-12-04T20:27:43.798Z,17.92
2018-12-04T20:30:11.861Z,20.70
2018-12-04T20:32:39.581Z,14.63
2018-12-04T20:35:07.273Z,21.17
2018-12-04T20:37:35.104Z,16.90
2018-12-04T20:40:02.926Z,20.85
2018-12-04T20:42:30.701Z,23.75
2018-12-04T20:44:58.380Z,18.32
2018-12-04T20:47:26.173Z,18.70
2018-12-04T20:49:54.006Z,33.60
2018-12-04T20:52:21.860Z,20.25
2018-12-04T20:54:49.654Z,22.13
2018-12-04T20:57:17.464Z,24.15
2018-12-04T20:59:45.164Z,24.63
2018-12-04T21:02:13.020Z,17.73
2018-12-04T21:04:41.087Z,24.92
2018-12-04T21:07:09.096Z,22.52
2018-12-04T21:09:36.736Z,22.77
2018-12-04T21:12:04.595Z,16.87
2018-12-04T21:14:32.448Z,23.38
2018-12-04T21:17:00.176Z,25.82
2018-12-04T21:19:27.947Z,21.50
2018-12-04T21:21:55.763Z,20.82
2018-12-04T21:24:23.591Z,22.20
2018-12-04T21:26:51.437Z,26.42
2018-12-04T21:29:25.001Z,17.80
2018-12-04T21:31:58.210Z,35.17
2018-12-04T21:34:31.431Z,28.45
2018-12-04T21:37:04.849Z,18.12
2018-12-04T21:39:35.986Z,19.92
2018-12-04T21:42:06.102Z,25.43
2018-12-04T21:44:39.407Z,20.30
2018-12-04T21:47:12.799Z,21.25
2018-12-04T21:49:40.637Z,24.60
2018-12-04T21:52:08.570Z,18.87
2018-12-04T21:54:36.393Z,24.02
2018-12-04T21:57:04.015Z,25.50
2018-12-04T21:59:31.834Z,20.32
2018-12-04T22:01:59.548Z,25.90
2018-12-04T22:04:27.259Z,22.48
2018-12-04T22:06:54.886Z,22.73
2018-12-04T22:09:22.669Z,22.30
2018-12-04T22:11:50.443Z,22.67
2018-12-04T22:14:18.173Z,18.10
2018-12-04T22:16:45.839Z,21.27
2018-12-04T22:19:13.572Z,15.98
2018-12-04T22:21:41.264Z,22.40
2018-12-04T22:24:09.133Z,25.20
2018-12-04T22:26:36.880Z,25.77
2018-12-04T22:29:04.805Z,30.08
2018-12-04T22:31:32.601Z,20.45
2018-12-04T22:34:00.296Z,25.60
2018-12-04T22:36:28.080Z,20.65
2018-12-04T22:38:56.122Z,25.12
2018-12-04T22:41:24.098Z,31.42
2018-12-04T22:43:51.788Z,24.10
2018-12-04T22:46:19.486Z,28.73
2018-12-04T22:48:47.188Z,30.65
2018-12-04T22:51:14.871Z,26.00
2018-12-04T22:53:42.605Z,32.50
2018-12-04T22:56:10.404Z,26.15
2018-12-04T22:58:38.189Z,22.50
2018-12-04T23:01:05.882Z,34.08
2018-12-04T23:03:33.557Z,34.65
2018-12-04T23:06:02.042Z,29.85
2018-12-04T23:08:29.663Z,32.13
2018-12-04T23:10:57.367Z,27.75
2018-12-04T23:13:25.027Z,38.42
2018-12-04T23:15:52.860Z,30.20
2018-12-04T23:18:20.847Z,28.75
2018-12-04T23:20:50.114Z,24.10
2018-12-04T23:23:17.969Z,24.15
2018-12-04T23:25:45.608Z,27.42
2018-12-04T23:28:13.253Z,22.93
2018-12-04T23:30:41.631Z,22.27
2018-12-04T23:33:09.338Z,26.00
2018-12-04T23:35:37.022Z,23.62
2018-12-04T23:38:04.676Z,25.48
2018-12-04T23:40:32.357Z,21.20
2018-12-04T23:43:00.142Z,26.40
2018-12-04T23:45:27.893Z,26.15
2018-12-04T23:47:55.556Z,22.20
2018-12-04T23:50:23.329Z,25.23
2018-12-04T23:52:51.033Z,21.00
2018-12-04T23:55:18.661Z,20.92
2018-12-04T23:57:46.395Z,24.75
